Rowsburg, Ohio
Current Conditions -  °F | °C
As of 8:56 AM on Thursday 30 Oct 2014 (Local Time) from KBJJ Reporting Station
Clear Clear  
Wind Chill: 38°   Ceiling: Unl
Heat Index: 38°   Visibility: 7mi
Dew Point: 35°   Wind: 3mph
Humidity: 89%   Direction: 280°W
Pressure: 30.13"   Gusts: NA
Location:  40.9196°N, 82.2006°W
Report Text: KBJJ 301256Z AUTO 28003KT 7SM CLR 03/02 A3013 RMK AO2 SLP209 T00330017 TSNO
Loading
Personal Weather Stations






























Interactive Weather Map
Tropical Storm Tracking
New forecast layout! Learn more

10-Day Weather Forecast

Advertisements
Track Severe Weather on mobile